Time;durP1;ratioP1;P1;durP2;ratioP2;P2;SDS_P1;SDS_P2;PMS_P1;PMS_P2;Temp;Humidity;BMP_temperature;BMP_pressure;BME280_temperature;BME280_humidity;BME280_pressure;Samples;Min_cycle;Max_cycle;Signal;HPM_P1;HPM_P2
2022/04/11 00:00:39;;;;;;;;;;;;;;;-143.90;100.00;55383.25;2071988;28;19933;-62
2022/04/11 00:02:00;;;;;;;;;;;;;;;-143.90;100.00;55385.25;2072850;28;19968;-62
2022/04/11 00:03:21;;;;;;;;;;;;;;;-143.90;100.00;55357.44;2074076;28;19926;-63
2022/04/11 00:04:42;;;;;;;;;;;;;;;-143.90;100.00;55381.28;2071582;28;19927;-63
2022/04/11 00:06:02;;;;;;;;;;;;;;;-143.90;100.00;55393.19;2072616;28;20463;-63
2022/04/11 00:07:23;;;;;;;;;;;;;;;-143.90;100.00;55337.59;2074194;28;19961;-63
2022/04/11 00:08:44;;;;;;;;;;;;;;;-143.90;100.00;55387.22;2072666;28;19936;-62
2022/04/11 00:10:04;;;;;;;;;;;;;;;-143.90;100.00;55387.22;2073524;28;19925;-63
2022/04/11 00:11:25;;;;;;;;;;;;;;;-143.90;100.00;55377.28;2073566;28;20487;-63
2022/04/11 00:12:47;;;;;;;;;;;;;;;-143.90;100.00;55389.22;2071585;28;19963;-63
2022/04/11 00:14:08;;;;;;;;;;;;;;;-143.90;100.00;55355.47;2070684;28;19921;-63
2022/04/11 00:15:28;;;;;;;;;;;;;;;-143.90;100.00;55385.25;2072335;28;19953;-62
2022/04/11 00:16:49;;;;;;;;;;;;;;;-143.90;100.00;55393.19;2073008;28;19972;-62
2022/04/11 00:18:10;;;;;;;;;;;;;;;-143.90;100.00;55393.19;2073084;28;19930;-63
2022/04/11 00:19:30;;;;;;;;;;;;;;;-143.90;100.00;55417.00;2072701;28;19924;-63
2022/04/11 00:20:52;;;;;;;;;;;;;;;-143.90;100.00;55369.34;2072294;28;19921;-62
2022/04/11 00:22:12;;;;;;;;;;;;;;;-143.90;100.00;55413.03;2071548;28;20308;-63
2022/04/11 00:23:33;;;;;;;;;;;;;;;-143.90;100.00;55385.25;2072065;28;19922;-63
2022/04/11 00:24:54;;;;;;;;;;;;;;;-143.90;100.00;55389.22;2073907;28;19990;-63
2022/04/11 00:26:15;;;;;;;;;;;;;;;-143.90;100.00;55369.34;2072792;28;20470;-63
2022/04/11 00:27:35;;;;;;;;;;;;;;;-143.90;100.00;55401.13;2072378;28;20040;-63
2022/04/11 00:28:56;;;;;;;;;;;;;;;-143.90;100.00;55367.38;2070578;28;19925;-63
2022/04/11 00:30:17;;;;;;;;;;;;;;;-143.90;100.00;55383.25;2071782;28;19928;-63
2022/04/11 00:31:38;;;;;;;;;;;;;;;-143.90;100.00;55391.19;2071893;28;20856;-63
2022/04/11 00:32:59;;;;;;;;;;;;;;;-143.90;100.00;55373.31;2071814;28;19929;-63
2022/04/11 00:34:21;;;;;;;;;;;;;;;-143.90;100.00;55417.00;2068563;28;19921;-63
2022/04/11 00:35:42;;;;;;;;;;;;;;;-143.90;100.00;55357.44;2070126;28;19933;-63
2022/04/11 00:37:03;;;;;;;;;;;;;;;-143.90;100.00;55389.22;2072552;28;20330;-63
2022/04/11 00:38:23;;;;;;;;;;;;;;;-143.90;100.00;55347.50;2062758;28;19921;-63
2022/04/11 00:39:44;;;;;;;;;;;;;;;-143.90;100.00;55371.34;2071022;28;19927;-62
2022/04/11 00:41:05;;;;;;;;;;;;;;;-143.90;100.00;55403.13;2066200;28;19959;-63
2022/04/11 00:42:31;;;;;;;;;;;;;;;-143.90;100.00;55373.31;2072185;28;19940;-63
2022/04/11 00:43:51;;;;;;;;;;;;;;;-143.90;100.00;55375.31;2066396;28;19929;-63
2022/04/11 00:45:12;;;;;;;;;;;;;;;-143.90;100.00;55333.63;2062864;28;19922;-63
2022/04/11 00:46:33;;;;;;;;;;;;;;;-143.90;100.00;55413.03;2069993;28;19920;-63
2022/04/11 00:47:54;;;;;;;;;;;;;;;-143.90;100.00;55379.28;2072545;28;19921;-63
2022/04/11 00:49:14;;;;;;;;;;;;;;;-143.90;100.00;55389.22;2068194;28;19929;-63
2022/04/11 00:50:35;;;;;;;;;;;;;;;-143.90;100.00;55349.50;2072093;28;19921;-63
2022/04/11 00:51:56;;;;;;;;;;;;;;;-143.90;100.00;55365.38;2067279;28;19932;-63
2022/04/11 00:53:17;;;;;;;;;;;;;;;-143.90;100.00;55420.97;2067395;28;19927;-63
2022/04/11 00:54:37;;;;;;;;;;;;;;;-143.90;100.00;55347.50;2067926;28;20029;-66
2022/04/11 00:55:59;;;;;;;;;;;;;;;-143.90;100.00;55409.06;2065755;28;19933;-63
2022/04/11 00:57:20;;;;;;;;;;;;;;;-143.90;100.00;55361.41;2065286;28;19925;-63
2022/04/11 00:58:41;;;;;;;;;;;;;;;-143.90;100.00;55393.19;2062219;28;20733;-63
2022/04/11 01:00:06;;;;;;;;;;;;;;;-143.90;100.00;55365.38;2065698;28;20451;-63
2022/04/11 01:01:27;;;;;;;;;;;;;;;-143.90;100.00;55377.28;2058742;28;19921;-63
2022/04/11 01:02:48;;;;;;;;;;;;;;;-143.90;100.00;55405.09;2058748;28;19949;-63
2022/04/11 01:04:23;;;;;;;;;;;;;;;-143.90;100.00;55420.97;2065007;28;19925;-63
2022/04/11 01:05:43;;;;;;;;;;;;;;;-143.90;100.00;55413.03;2056579;28;19929;-63
2022/04/11 01:07:04;;;;;;;;;;;;;;;-143.90;100.00;55401.13;2063915;28;19921;-63
2022/04/11 01:08:25;;;;;;;;;;;;;;;-143.90;100.00;55333.63;2066115;28;19984;-63
2022/04/11 01:09:45;;;;;;;;;;;;;;;-143.90;100.00;55419.00;2068130;28;20032;-63
2022/04/11 01:11:06;;;;;;;;;;;;;;;-143.90;100.00;55375.31;2063427;28;19922;-63
2022/04/11 01:12:27;;;;;;;;;;;;;;;-143.90;100.00;55369.34;2061857;28;19921;-63
2022/04/11 01:13:48;;;;;;;;;;;;;;;-143.90;100.00;55329.63;2063095;28;19949;-62
2022/04/11 01:15:09;;;;;;;;;;;;;;;-143.90;100.00;55357.44;2063160;28;20366;-63
2022/04/11 01:16:29;;;;;;;;;;;;;;;-143.90;100.00;55385.25;2065099;28;19945;-63
2022/04/11 01:17:50;;;;;;;;;;;;;;;-143.90;100.00;55349.50;2071575;28;19925;-63
2022/04/11 01:19:11;;;;;;;;;;;;;;;-143.90;100.00;55393.19;2068014;28;19941;-63
2022/04/11 01:20:31;;;;;;;;;;;;;;;-143.90;100.00;55393.19;2067612;28;20047;-63
2022/04/11 01:21:52;;;;;;;;;;;;;;;-143.90;100.00;55385.25;2065719;28;19925;-63
2022/04/11 01:23:13;;;;;;;;;;;;;;;-143.90;100.00;55361.41;2065636;28;19929;-63
2022/04/11 01:24:36;;;;;;;;;;;;;;;-143.90;100.00;55373.31;2067879;28;20043;-63
2022/04/11 01:25:57;;;;;;;;;;;;;;;-143.90;100.00;55391.19;2066536;28;19925;-63
2022/04/11 01:27:17;;;;;;;;;;;;;;;-143.90;100.00;55385.25;2071670;28;19964;-63
2022/04/11 01:28:38;;;;;;;;;;;;;;;-143.90;100.00;55365.38;2063069;28;19971;-63
2022/04/11 01:29:59;;;;;;;;;;;;;;;-143.90;100.00;55397.16;2064890;28;19960;-62
2022/04/11 01:31:20;;;;;;;;;;;;;;;-143.90;100.00;55357.44;2071646;28;20859;-63
2022/04/11 01:32:42;;;;;;;;;;;;;;;-143.90;100.00;55397.16;2066406;28;20008;-63
2022/04/11 01:34:03;;;;;;;;;;;;;;;-143.90;100.00;55393.19;2065437;28;19944;-63
2022/04/11 01:35:25;;;;;;;;;;;;;;;-143.90;100.00;55381.28;2066006;28;19925;-63
2022/04/11 01:36:47;;;;;;;;;;;;;;;-143.90;100.00;55345.53;2070115;28;19931;-64
2022/04/11 01:38:08;;;;;;;;;;;;;;;-143.90;100.00;55413.03;2065751;28;19948;-63
2022/04/11 01:39:28;;;;;;;;;;;;;;;-143.90;100.00;55361.41;2067125;28;19968;-63
2022/04/11 01:40:50;;;;;;;;;;;;;;;-143.90;100.00;55369.34;2065482;28;20409;-62
2022/04/11 01:42:10;;;;;;;;;;;;;;;-143.90;100.00;55371.34;2072452;28;19925;-63
2022/04/11 01:43:31;;;;;;;;;;;;;;;-143.90;100.00;55389.22;2067228;28;19922;-62
2022/04/11 01:44:52;;;;;;;;;;;;;;;-143.90;100.00;55349.50;2070485;28;19921;-63
2022/04/11 01:46:13;;;;;;;;;;;;;;;-143.90;100.00;55369.34;2068030;28;19933;-63
2022/04/11 01:47:39;;;;;;;;;;;;;;;-143.90;100.00;55375.31;2072102;28;19922;-63
2022/04/11 01:48:59;;;;;;;;;;;;;;;-143.90;100.00;55375.31;2065501;28;19922;-63
2022/04/11 01:50:21;;;;;;;;;;;;;;;-143.90;100.00;55385.25;2070558;28;19926;-63
2022/04/11 01:51:42;;;;;;;;;;;;;;;-143.90;100.00;55407.09;2066458;28;20069;-63
2022/04/11 01:53:03;;;;;;;;;;;;;;;-143.90;100.00;55315.75;2067151;28;19921;-63
2022/04/11 01:54:24;;;;;;;;;;;;;;;-143.90;100.00;55321.69;2065507;28;19976;-63
2022/04/11 01:55:44;;;;;;;;;;;;;;;-143.90;100.00;55393.19;2065051;28;19932;-63
2022/04/11 01:57:05;;;;;;;;;;;;;;;-143.90;100.00;55409.06;2073103;28;20483;-63
2022/04/11 01:58:26;;;;;;;;;;;;;;;-143.90;100.00;55367.38;2066519;28;20024;-63
2022/04/11 01:59:47;;;;;;;;;;;;;;;-143.90;100.00;55349.50;2063318;28;19925;-63
2022/04/11 02:01:07;;;;;;;;;;;;;;;-143.90;100.00;55389.22;2063378;28;19976;-63
2022/04/11 02:02:29;;;;;;;;;;;;;;;-143.90;100.00;55345.53;2067611;28;19922;-63
2022/04/11 02:03:49;;;;;;;;;;;;;;;-143.90;100.00;55397.16;2067161;28;19922;-63
2022/04/11 02:05:10;;;;;;;;;;;;;;;-143.90;100.00;55385.25;2072573;28;19925;-63
2022/04/11 02:06:31;;;;;;;;;;;;;;;-143.90;100.00;55329.63;2065545;28;19921;-63
2022/04/11 02:07:53;;;;;;;;;;;;;;;-143.90;100.00;55329.63;2062003;28;19932;-63
2022/04/11 02:09:14;;;;;;;;;;;;;;;-143.90;100.00;55389.22;2069375;28;19971;-63
2022/04/11 02:10:35;;;;;;;;;;;;;;;-143.90;100.00;55351.47;2067902;28;19926;-63
2022/04/11 02:11:55;;;;;;;;;;;;;;;-143.90;100.00;55389.22;2064824;28;19921;-63
2022/04/11 02:13:16;;;;;;;;;;;;;;;-143.90;100.00;55377.28;2058842;28;19928;-63
2022/04/11 02:14:37;;;;;;;;;;;;;;;-143.90;100.00;55345.53;2066583;28;19932;-63
2022/04/11 02:15:59;;;;;;;;;;;;;;;-143.90;100.00;55379.28;2068575;28;19951;-63
2022/04/11 02:17:19;;;;;;;;;;;;;;;-143.90;100.00;55373.31;2065426;28;20012;-63
2022/04/11 02:18:40;;;;;;;;;;;;;;;-143.90;100.00;55311.78;2065654;28;19932;-63
2022/04/11 02:20:02;;;;;;;;;;;;;;;-143.90;100.00;55361.41;2071788;28;19921;-63
2022/04/11 02:21:23;;;;;;;;;;;;;;;-143.90;100.00;55387.22;2068287;28;19928;-63
2022/04/11 02:22:45;;;;;;;;;;;;;;;-143.90;100.00;55333.63;2067147;28;20428;-63
2022/04/11 02:24:06;;;;;;;;;;;;;;;-143.90;100.00;55337.59;2067266;28;19960;-63
2022/04/11 02:25:27;;;;;;;;;;;;;;;-143.90;100.00;55351.47;2066718;28;19928;-62
2022/04/11 02:26:48;;;;;;;;;;;;;;;-143.90;100.00;55405.09;2066455;28;19921;-63
2022/04/11 02:28:09;;;;;;;;;;;;;;;-143.90;100.00;55353.47;2069916;28;19940;-63
2022/04/11 02:29:30;;;;;;;;;;;;;;;-143.90;100.00;55393.19;2066336;28;19932;-62
2022/04/11 02:30:51;;;;;;;;;;;;;;;-143.90;100.00;55371.34;2072297;28;19921;-63
2022/04/11 02:32:12;;;;;;;;;;;;;;;-143.90;100.00;55369.34;2064959;28;19952;-63
2022/04/11 02:33:33;;;;;;;;;;;;;;;-143.90;100.00;55373.31;2070421;28;19925;-63
2022/04/11 02:34:54;;;;;;;;;;;;;;;-143.90;100.00;55369.34;2073351;28;20020;-63
2022/04/11 02:36:15;;;;;;;;;;;;;;;-143.90;100.00;55349.50;2066012;28;20389;-62
2022/04/11 02:37:35;;;;;;;;;;;;;;;-143.90;100.00;55353.47;2071147;28;19921;-62
2022/04/11 02:38:56;;;;;;;;;;;;;;;-143.90;100.00;55333.63;2065000;28;19922;-62
2022/04/11 02:40:17;;;;;;;;;;;;;;;-143.90;100.00;55365.38;2069770;28;20412;-63
2022/04/11 02:41:58;;;;;;;;;;;;;;;-143.90;100.00;55321.69;2066792;28;20718;-63
2022/04/11 02:43:19;;;;;;;;;;;;;;;-143.90;100.00;55341.56;2071728;28;19928;-63
2022/04/11 02:44:48;;;;;;;;;;;;;;;-143.90;100.00;55375.31;2065049;28;20437;-63
2022/04/11 02:46:08;;;;;;;;;;;;;;;-143.90;100.00;55345.53;2070367;28;19968;-63
2022/04/11 02:47:32;;;;;;;;;;;;;;;-143.90;100.00;55357.44;2066651;28;19936;-63
2022/04/11 02:48:52;;;;;;;;;;;;;;;-143.90;100.00;55373.31;2064424;28;19922;-63
2022/04/11 02:50:28;;;;;;;;;;;;;;;-143.90;100.00;55371.34;2066141;28;19925;-63
2022/04/11 02:52:00;;;;;;;;;;;;;;;-143.90;100.00;55341.56;2066340;28;19987;-63
2022/04/11 02:53:21;;;;;;;;;;;;;;;-143.90;100.00;55353.47;2064208;28;20024;-63
2022/04/11 02:54:42;;;;;;;;;;;;;;;-143.90;100.00;55367.38;2071967;28;19925;-63
2022/04/11 02:56:03;;;;;;;;;;;;;;;-143.90;100.00;55355.47;2064746;28;19926;-63
2022/04/11 02:57:23;;;;;;;;;;;;;;;-143.90;100.00;55363.41;2065280;28;19995;-64
2022/04/11 02:58:44;;;;;;;;;;;;;;;-143.90;100.00;55355.47;2061547;28;19922;-63
2022/04/11 03:00:06;;;;;;;;;;;;;;;-143.90;100.00;55373.31;2063670;28;20016;-63
2022/04/11 03:01:28;;;;;;;;;;;;;;;-143.90;100.00;55327.66;2064464;28;20441;-63
2022/04/11 03:02:50;;;;;;;;;;;;;;;-143.90;100.00;55335.59;2069866;28;19925;-63
2022/04/11 03:04:11;;;;;;;;;;;;;;;-143.90;100.00;55339.56;2065868;28;19985;-63
2022/04/11 03:05:45;;;;;;;;;;;;;;;-143.90;100.00;55367.38;2064839;28;20012;-63
2022/04/11 03:07:06;;;;;;;;;;;;;;;-143.90;100.00;55345.53;2070249;28;20850;-62
2022/04/11 03:08:27;;;;;;;;;;;;;;;-143.90;100.00;55355.47;2071331;28;19925;-62
2022/04/11 03:09:47;;;;;;;;;;;;;;;-143.90;100.00;55351.47;2064495;28;19928;-62
2022/04/11 03:11:09;;;;;;;;;;;;;;;-143.90;100.00;55327.66;2069951;28;19951;-62
2022/04/11 03:12:31;;;;;;;;;;;;;;;-143.90;100.00;55349.50;2068978;28;19921;-63
2022/04/11 03:13:52;;;;;;;;;;;;;;;-143.90;100.00;55369.34;2071234;28;19922;-63
2022/04/11 03:15:13;;;;;;;;;;;;;;;-143.90;100.00;55349.50;2065147;28;19929;-62
2022/04/11 03:16:35;;;;;;;;;;;;;;;-143.90;100.00;55333.63;2058245;28;19933;-63
2022/04/11 03:17:56;;;;;;;;;;;;;;;-143.90;100.00;55377.28;2062277;28;19929;-62
2022/04/11 03:19:17;;;;;;;;;;;;;;;-143.90;100.00;55349.50;2064954;28;19955;-62
2022/04/11 03:20:56;;;;;;;;;;;;;;;-143.90;100.00;55367.38;2065935;28;20056;-61
2022/04/11 03:22:17;;;;;;;;;;;;;;;-143.90;100.00;55377.28;2066508;28;20271;-62
2022/04/11 03:23:44;;;;;;;;;;;;;;;-143.90;100.00;55353.47;2065995;28;19921;-63
2022/04/11 03:25:06;;;;;;;;;;;;;;;-143.90;100.00;55365.38;2065245;28;19921;-64
2022/04/11 03:26:26;;;;;;;;;;;;;;;-143.90;100.00;55387.22;2066671;28;20494;-63
2022/04/11 03:27:48;;;;;;;;;;;;;;;-143.90;100.00;55375.31;2068777;28;19932;-63
2022/04/11 03:29:10;;;;;;;;;;;;;;;-143.90;100.00;55377.28;2064193;28;19937;-63
2022/04/11 03:30:31;;;;;;;;;;;;;;;-143.90;100.00;55369.34;2062677;28;19921;-64
2022/04/11 03:31:52;;;;;;;;;;;;;;;-143.90;100.00;55379.28;2063983;28;19929;-63
2022/04/11 03:33:14;;;;;;;;;;;;;;;-143.90;100.00;55353.47;2066835;28;19921;-63
2022/04/11 03:34:36;;;;;;;;;;;;;;;-143.90;100.00;55349.50;2070963;28;19921;-63
2022/04/11 03:35:57;;;;;;;;;;;;;;;-143.90;100.00;55389.22;2063887;28;20420;-63
2022/04/11 03:37:18;;;;;;;;;;;;;;;-143.90;100.00;55381.28;2069610;28;19921;-63
2022/04/11 03:38:51;;;;;;;;;;;;;;;-143.90;100.00;55365.38;2064508;28;19925;-62
2022/04/11 03:40:14;;;;;;;;;;;;;;;-143.90;100.00;55365.38;2069553;28;19929;-63
2022/04/11 03:41:36;;;;;;;;;;;;;;;-143.90;100.00;55339.56;2065717;28;19932;-63
2022/04/11 03:43:08;;;;;;;;;;;;;;;-143.90;100.00;55369.34;2064237;28;20771;-63
2022/04/11 03:44:29;;;;;;;;;;;;;;;-143.90;100.00;55369.34;2062422;28;19925;-62
2022/04/11 03:45:55;;;;;;;;;;;;;;;-143.90;100.00;55361.41;2062531;28;19926;-63
2022/04/11 03:47:16;;;;;;;;;;;;;;;-143.90;100.00;55341.56;2064405;28;19921;-63
2022/04/11 03:48:36;;;;;;;;;;;;;;;-143.90;100.00;55367.38;2058807;28;20404;-63
2022/04/11 03:49:58;;;;;;;;;;;;;;;-143.90;100.00;55343.53;2067451;28;19925;-63
2022/04/11 03:51:26;;;;;;;;;;;;;;;-143.90;100.00;55393.19;2069869;28;19928;-63
2022/04/11 03:52:47;;;;;;;;;;;;;;;-143.90;100.00;55369.34;2063397;28;20008;-63
2022/04/11 03:54:08;;;;;;;;;;;;;;;-143.90;100.00;55357.44;2065463;28;19995;-63
2022/04/11 03:55:28;;;;;;;;;;;;;;;-143.90;100.00;55341.56;2064078;28;19925;-63
2022/04/11 03:56:50;;;;;;;;;;;;;;;-143.90;100.00;55361.41;2062891;28;19995;-63
2022/04/11 03:58:11;;;;;;;;;;;;;;;-143.90;100.00;55357.44;2069514;28;19987;-63
2022/04/11 03:59:34;;;;;;;;;;;;;;;-143.90;100.00;55325.66;2055461;28;19922;-63
2022/04/11 04:00:56;;;;;;;;;;;;;;;-143.90;100.00;55317.72;2061552;28;20524;-63
2022/04/11 04:02:19;;;;;;;;;;;;;;;-143.90;100.00;55345.53;2069272;28;19964;-62
2022/04/11 04:03:40;;;;;;;;;;;;;;;-143.90;100.00;55341.56;2065051;28;21360;-63
2022/04/11 04:05:04;;;;;;;;;;;;;;;-143.90;100.00;55389.22;2061852;28;19925;-63
2022/04/11 04:06:25;;;;;;;;;;;;;;;-143.90;100.00;55345.53;2065931;28;20300;-63
2022/04/11 04:07:45;;;;;;;;;;;;;;;-143.90;100.00;55349.50;2059710;28;19918;-63
2022/04/11 04:09:06;;;;;;;;;;;;;;;-143.90;100.00;55361.41;2063893;28;19925;-63
2022/04/11 04:10:30;;;;;;;;;;;;;;;-143.90;100.00;55363.41;2066081;28;19973;-63
2022/04/11 04:11:52;;;;;;;;;;;;;;;-143.90;100.00;55357.44;2065168;28;19957;-63
2022/04/11 04:13:17;;;;;;;;;;;;;;;-143.90;100.00;55301.84;2070132;28;19925;-63
2022/04/11 04:14:39;;;;;;;;;;;;;;;-143.90;100.00;55369.34;2064481;28;19921;-63
2022/04/11 04:16:02;;;;;;;;;;;;;;;-143.90;100.00;55381.28;2061657;28;19957;-63
2022/04/11 04:17:23;;;;;;;;;;;;;;;-143.90;100.00;55333.63;2064284;28;19928;-63
2022/04/11 04:18:52;;;;;;;;;;;;;;;-143.90;100.00;55323.69;2069247;28;19991;-63
2022/04/11 04:20:13;;;;;;;;;;;;;;;-143.90;100.00;55355.47;2065416;28;19921;-64
2022/04/11 04:21:34;;;;;;;;;;;;;;;-143.90;100.00;55353.47;2064896;28;20119;-63
2022/04/11 04:22:56;;;;;;;;;;;;;;;-143.90;100.00;55385.25;2069188;28;19917;-63
2022/04/11 04:24:19;;;;;;;;;;;;;;;-143.90;100.00;55351.47;2060948;28;19922;-63
2022/04/11 04:25:40;;;;;;;;;;;;;;;-143.90;100.00;55345.53;2051997;28;19922;-63
2022/04/11 04:27:01;;;;;;;;;;;;;;;-143.90;100.00;55367.38;2062076;28;20660;-63
2022/04/11 04:28:23;;;;;;;;;;;;;;;-143.90;100.00;55357.44;2063762;28;20016;-63
2022/04/11 04:29:45;;;;;;;;;;;;;;;-143.90;100.00;55365.38;2064864;28;20431;-63
2022/04/11 04:31:06;;;;;;;;;;;;;;;-143.90;100.00;55351.47;2070407;28;19963;-63
2022/04/11 04:32:30;;;;;;;;;;;;;;;-143.90;100.00;55341.56;2064100;28;20007;-62
2022/04/11 04:33:51;;;;;;;;;;;;;;;-143.90;100.00;55309.78;2059885;28;19957;-63
2022/04/11 04:35:12;;;;;;;;;;;;;;;-143.90;100.00;55353.47;2069600;28;19921;-63
2022/04/11 04:36:35;;;;;;;;;;;;;;;-143.90;100.00;55369.34;2064967;28;20008;-63
2022/04/11 04:37:57;;;;;;;;;;;;;;;-143.90;100.00;55365.38;2069542;28;19922;-63
2022/04/11 04:39:19;;;;;;;;;;;;;;;-143.90;100.00;55365.38;2067651;28;19956;-62
2022/04/11 04:40:40;;;;;;;;;;;;;;;-143.90;100.00;55351.47;2070057;28;20276;-63
2022/04/11 04:42:03;;;;;;;;;;;;;;;-143.90;100.00;55341.56;2062933;28;19917;-62
2022/04/11 04:43:25;;;;;;;;;;;;;;;-143.90;100.00;55381.28;2063160;28;20849;-63
2022/04/11 04:44:47;;;;;;;;;;;;;;;-143.90;100.00;55349.50;2070405;28;19967;-62
2022/04/11 04:46:09;;;;;;;;;;;;;;;-143.90;100.00;55339.56;2062930;28;19925;-63
2022/04/11 04:47:36;;;;;;;;;;;;;;;-143.90;100.00;55369.34;2061367;28;19933;-63
2022/04/11 04:48:57;;;;;;;;;;;;;;;-143.90;100.00;55355.47;2069066;28;19937;-63
2022/04/11 04:50:19;;;;;;;;;;;;;;;-143.90;100.00;55373.31;2070948;28;19921;-63
2022/04/11 04:51:41;;;;;;;;;;;;;;;-143.90;100.00;55337.59;2062958;28;20413;-63
2022/04/11 04:53:01;;;;;;;;;;;;;;;-143.90;100.00;55337.59;2062285;28;20048;-63
2022/04/11 04:54:22;;;;;;;;;;;;;;;-143.90;100.00;55353.47;2059829;28;19922;-63
2022/04/11 04:55:43;;;;;;;;;;;;;;;-143.90;100.00;55391.19;2061638;28;20599;-63
2022/04/11 04:57:06;;;;;;;;;;;;;;;-143.90;100.00;55353.47;2068983;28;19943;-63
2022/04/11 04:58:27;;;;;;;;;;;;;;;-143.90;100.00;55341.56;2066626;28;19917;-63
2022/04/11 04:59:48;;;;;;;;;;;;;;;-143.90;100.00;55321.69;2070233;28;19925;-63
2022/04/11 05:01:14;;;;;;;;;;;;;;;-143.90;100.00;55393.19;2062937;28;19932;-63
2022/04/11 05:02:36;;;;;;;;;;;;;;;-143.90;100.00;55327.66;2063101;28;19925;-63
2022/04/11 05:03:57;;;;;;;;;;;;;;;-143.90;100.00;55371.34;2070153;28;19917;-63
2022/04/11 05:05:23;;;;;;;;;;;;;;;-143.90;100.00;55369.34;2067601;28;19929;-63
2022/04/11 05:06:47;;;;;;;;;;;;;;;-143.90;100.00;55313.75;2069294;28;19917;-64
2022/04/11 05:08:08;;;;;;;;;;;;;;;-143.90;100.00;55321.69;2063520;28;20601;-63
2022/04/11 05:09:33;;;;;;;;;;;;;;;-143.90;100.00;55357.44;2061805;28;20033;-63
2022/04/11 05:10:55;;;;;;;;;;;;;;;-143.90;100.00;55337.59;2067335;28;20024;-62
2022/04/11 05:12:16;;;;;;;;;;;;;;;-143.90;100.00;55331.63;2063950;28;20012;-64
2022/04/11 05:13:38;;;;;;;;;;;;;;;-143.90;100.00;55333.63;2056029;28;20000;-63
2022/04/11 05:14:59;;;;;;;;;;;;;;;-143.90;100.00;55301.84;2062735;28;19928;-62
2022/04/11 05:16:20;;;;;;;;;;;;;;;-143.90;100.00;55309.78;2060882;28;20080;-62
2022/04/11 05:17:42;;;;;;;;;;;;;;;-143.90;100.00;55369.34;2068470;28;19986;-63
2022/04/11 05:19:04;;;;;;;;;;;;;;;-143.90;100.00;55345.53;2067642;28;19991;-63
2022/04/11 05:20:25;;;;;;;;;;;;;;;-143.90;100.00;55329.63;2068118;28;19921;-64
2022/04/11 05:21:46;;;;;;;;;;;;;;;-143.90;100.00;55345.53;2062804;28;20325;-63
2022/04/11 05:23:07;;;;;;;;;;;;;;;-143.90;100.00;55357.44;2068937;28;20024;-63
2022/04/11 05:24:32;;;;;;;;;;;;;;;-143.90;100.00;55357.44;2067776;28;19928;-63
2022/04/11 05:25:54;;;;;;;;;;;;;;;-143.90;100.00;55381.28;2064509;28;19918;-63
2022/04/11 05:27:15;;;;;;;;;;;;;;;-143.90;100.00;55349.50;2065797;28;19968;-63
2022/04/11 05:28:36;;;;;;;;;;;;;;;-143.90;100.00;55341.56;2061124;28;19941;-64
2022/04/11 05:29:58;;;;;;;;;;;;;;;-143.90;100.00;55337.59;2069111;28;19917;-63
2022/04/11 05:31:19;;;;;;;;;;;;;;;-143.90;100.00;55381.28;2071009;28;19923;-63
2022/04/11 05:32:39;;;;;;;;;;;;;;;-143.90;100.00;55341.56;2071959;28;19929;-63
2022/04/11 05:34:01;;;;;;;;;;;;;;;-143.90;100.00;55325.66;2066441;28;19921;-63
2022/04/11 05:35:22;;;;;;;;;;;;;;;-143.90;100.00;55345.53;2069545;28;19971;-63
2022/04/11 05:36:43;;;;;;;;;;;;;;;-143.90;100.00;55369.34;2067458;28;19924;-63
2022/04/11 05:38:06;;;;;;;;;;;;;;;-143.90;100.00;55347.50;2065882;28;19921;-63
2022/04/11 05:39:26;;;;;;;;;;;;;;;-143.90;100.00;55321.69;2062181;28;20516;-63
2022/04/11 05:40:47;;;;;;;;;;;;;;;-143.90;100.00;55341.56;2067050;28;20008;-63
2022/04/11 05:42:14;;;;;;;;;;;;;;;-143.90;100.00;55325.66;2063759;28;19972;-63
2022/04/11 05:43:35;;;;;;;;;;;;;;;-143.90;100.00;55369.34;2062397;28;20468;-63
2022/04/11 05:44:56;;;;;;;;;;;;;;;-143.90;100.00;55325.66;2061620;28;20074;-63
2022/04/11 05:46:16;;;;;;;;;;;;;;;-143.90;100.00;55349.50;2069662;28;19921;-63
2022/04/11 05:47:43;;;;;;;;;;;;;;;-143.90;100.00;55353.47;2065249;28;19973;-63
2022/04/11 05:49:06;;;;;;;;;;;;;;;-143.90;100.00;55321.69;2070605;28;19928;-63
2022/04/11 05:50:27;;;;;;;;;;;;;;;-143.90;100.00;55297.88;2067300;28;19948;-63
2022/04/11 05:51:49;;;;;;;;;;;;;;;-143.90;100.00;55363.41;2067960;28;19929;-63
2022/04/11 05:53:10;;;;;;;;;;;;;;;-143.90;100.00;55365.38;2070187;28;20534;-62
2022/04/11 05:54:31;;;;;;;;;;;;;;;-143.90;100.00;55349.50;2066996;28;19952;-63
2022/04/11 05:55:52;;;;;;;;;;;;;;;-143.90;100.00;55361.41;2062210;28;19918;-63
2022/04/11 05:57:13;;;;;;;;;;;;;;;-143.90;100.00;55337.59;2064466;28;20047;-63
2022/04/11 05:58:35;;;;;;;;;;;;;;;-143.90;100.00;55317.72;2063290;28;20360;-63
2022/04/11 05:59:58;;;;;;;;;;;;;;;-143.90;100.00;55365.38;2062249;28;20392;-63
2022/04/11 06:01:18;;;;;;;;;;;;;;;-143.90;100.00;55337.59;2069231;28;20339;-63
2022/04/11 06:02:39;;;;;;;;;;;;;;;-143.90;100.00;55319.72;2067809;28;19917;-63
2022/04/11 06:04:01;;;;;;;;;;;;;;;-143.90;100.00;55309.78;2064211;28;19917;-63
2022/04/11 06:05:24;;;;;;;;;;;;;;;-143.90;100.00;55367.38;2069574;28;19921;-63
2022/04/11 06:06:45;;;;;;;;;;;;;;;-143.90;100.00;55329.63;2067459;28;20528;-63
2022/04/11 06:08:06;;;;;;;;;;;;;;;-143.90;100.00;55345.53;2070480;28;19925;-62
2022/04/11 06:09:29;;;;;;;;;;;;;;;-143.90;100.00;55297.88;2064594;28;19917;-63
2022/04/11 06:10:49;;;;;;;;;;;;;;;-143.90;100.00;55313.75;2060957;28;19933;-63
2022/04/11 06:12:14;;;;;;;;;;;;;;;-143.90;100.00;55297.88;2062247;28;19918;-63
2022/04/11 06:13:37;;;;;;;;;;;;;;;-143.90;100.00;55297.88;2064698;28;19940;-63
2022/04/11 06:14:58;;;;;;;;;;;;;;;-143.90;100.00;55341.56;2065051;28;20031;-63
2022/04/11 06:16:19;;;;;;;;;;;;;;;-143.90;100.00;55321.69;2056049;28;19945;-62
2022/04/11 06:17:40;;;;;;;;;;;;;;;-143.90;100.00;55285.97;2063959;28;19925;-63
2022/04/11 06:19:01;;;;;;;;;;;;;;;-143.90;100.00;55305.81;2068171;28;19952;-63
2022/04/11 06:20:22;;;;;;;;;;;;;;;-143.90;100.00;55315.75;2064993;28;19928;-63
2022/04/11 06:21:43;;;;;;;;;;;;;;;-143.90;100.00;55329.63;2064163;28;20060;-63
2022/04/11 06:23:04;;;;;;;;;;;;;;;-143.90;100.00;55297.88;2069788;28;19918;-63
2022/04/11 06:24:25;;;;;;;;;;;;;;;-143.90;100.00;55285.97;2063815;28;19918;-63
2022/04/11 06:25:46;;;;;;;;;;;;;;;-143.90;100.00;55337.59;2062217;28;19922;-63
2022/04/11 06:27:06;;;;;;;;;;;;;;;-143.90;100.00;55341.56;2058063;28;20617;-63
2022/04/11 06:28:27;;;;;;;;;;;;;;;-143.90;100.00;55353.47;2045747;28;19937;-63
2022/04/11 06:29:48;;;;;;;;;;;;;;;-143.90;100.00;55313.75;2053096;28;19926;-64
2022/04/11 06:31:10;;;;;;;;;;;;;;;-143.90;100.00;55337.59;2048021;28;20334;-63
2022/04/11 06:32:31;;;;;;;;;;;;;;;-143.90;100.00;55329.63;2058101;28;19922;-63
2022/04/11 06:33:52;;;;;;;;;;;;;;;-143.90;100.00;55289.94;2050630;28;19928;-63
2022/04/11 06:35:15;;;;;;;;;;;;;;;-143.90;100.00;55297.88;2054591;28;20016;-64
2022/04/11 06:36:36;;;;;;;;;;;;;;;-143.90;100.00;55333.63;2048218;28;20060;-64
2022/04/11 06:37:57;;;;;;;;;;;;;;;-143.90;100.00;55297.88;2050203;28;20316;-64
2022/04/11 06:39:18;;;;;;;;;;;;;;;-143.90;100.00;55303.81;2046755;28;20017;-64
2022/04/11 06:40:45;;;;;;;;;;;;;;;-143.90;100.00;55295.88;2054775;28;19917;-64
2022/04/11 06:42:07;;;;;;;;;;;;;;;-143.90;100.00;55309.78;2048707;28;19922;-64
2022/04/11 06:43:27;;;;;;;;;;;;;;;-143.90;100.00;55317.72;2054419;28;19944;-65
2022/04/11 06:44:58;;;;;;;;;;;;;;;-143.90;100.00;55329.63;2055648;28;20008;-64
2022/04/11 06:46:23;;;;;;;;;;;;;;;-143.90;100.00;55313.75;2048921;28;20371;-64
2022/04/11 06:47:44;;;;;;;;;;;;;;;-143.90;100.00;55327.66;2054057;28;19953;-64
2022/04/11 06:49:05;;;;;;;;;;;;;;;-143.90;100.00;55305.81;2044969;28;20503;-64
2022/04/11 06:50:26;;;;;;;;;;;;;;;-143.90;100.00;55301.84;2053197;28;20000;-64